sensor_id;sensor_type;location;lat;lon;timestamp;P1;durP1;ratioP1;P2;durP2;ratioP2
11663;SDS011;72375;59.302;18.204;2024-02-23T00:01:15;15.03;;;8.40;;
11663;SDS011;72375;59.302;18.204;2024-02-23T00:04:02;13.67;;;8.63;;
11663;SDS011;72375;59.302;18.204;2024-02-23T00:06:50;13.73;;;8.37;;
11663;SDS011;72375;59.302;18.204;2024-02-23T00:09:36;15.30;;;8.27;;
11663;SDS011;72375;59.302;18.204;2024-02-23T00:12:21;17.20;;;8.50;;
11663;SDS011;72375;59.302;18.204;2024-02-23T00:15:07;14.27;;;8.13;;
11663;SDS011;72375;59.302;18.204;2024-02-23T00:17:53;11.27;;;8.07;;
11663;SDS011;72375;59.302;18.204;2024-02-23T00:20:40;12.90;;;8.10;;
11663;SDS011;72375;59.302;18.204;2024-02-23T00:23:26;12.23;;;7.53;;
11663;SDS011;72375;59.302;18.204;2024-02-23T00:26:12;13.07;;;7.63;;
11663;SDS011;72375;59.302;18.204;2024-02-23T00:28:58;14.93;;;7.40;;
11663;SDS011;72375;59.302;18.204;2024-02-23T00:31:44;17.67;;;7.87;;
11663;SDS011;72375;59.302;18.204;2024-02-23T00:34:30;14.97;;;8.10;;
11663;SDS011;72375;59.302;18.204;2024-02-23T00:37:17;17.50;;;8.10;;
11663;SDS011;72375;59.302;18.204;2024-02-23T00:40:02;17.43;;;8.30;;
11663;SDS011;72375;59.302;18.204;2024-02-23T00:42:48;14.33;;;8.53;;
11663;SDS011;72375;59.302;18.204;2024-02-23T00:45:34;14.53;;;8.47;;
11663;SDS011;72375;59.302;18.204;2024-02-23T00:48:20;14.97;;;8.17;;
11663;SDS011;72375;59.302;18.204;2024-02-23T00:51:05;10.70;;;7.60;;
11663;SDS011;72375;59.302;18.204;2024-02-23T00:53:52;13.73;;;7.40;;
11663;SDS011;72375;59.302;18.204;2024-02-23T00:56:38;10.57;;;6.97;;
11663;SDS011;72375;59.302;18.204;2024-02-23T00:59:24;10.87;;;7.87;;
11663;SDS011;72375;59.302;18.204;2024-02-23T01:02:09;13.10;;;8.07;;
11663;SDS011;72375;59.302;18.204;2024-02-23T01:04:55;13.10;;;8.77;;
11663;SDS011;72375;59.302;18.204;2024-02-23T01:07:42;12.50;;;8.07;;
11663;SDS011;72375;59.302;18.204;2024-02-23T01:10:29;13.80;;;7.57;;
11663;SDS011;72375;59.302;18.204;2024-02-23T01:13:14;14.17;;;8.63;;
11663;SDS011;72375;59.302;18.204;2024-02-23T01:16:00;15.17;;;8.97;;
11663;SDS011;72375;59.302;18.204;2024-02-23T01:18:46;14.87;;;8.77;;
11663;SDS011;72375;59.302;18.204;2024-02-23T01:21:32;14.10;;;8.23;;
11663;SDS011;72375;59.302;18.204;2024-02-23T01:24:18;13.73;;;8.70;;
11663;SDS011;72375;59.302;18.204;2024-02-23T01:27:06;14.23;;;8.70;;
11663;SDS011;72375;59.302;18.204;2024-02-23T01:29:53;12.87;;;8.57;;
11663;SDS011;72375;59.302;18.204;2024-02-23T01:32:39;14.93;;;9.07;;
11663;SDS011;72375;59.302;18.204;2024-02-23T01:35:26;15.83;;;8.87;;
11663;SDS011;72375;59.302;18.204;2024-02-23T01:38:15;12.17;;;7.53;;
11663;SDS011;72375;59.302;18.204;2024-02-23T01:41:04;11.13;;;7.70;;
11663;SDS011;72375;59.302;18.204;2024-02-23T01:43:55;12.93;;;8.40;;
11663;SDS011;72375;59.302;18.204;2024-02-23T01:46:41;11.50;;;7.87;;
11663;SDS011;72375;59.302;18.204;2024-02-23T01:49:27;12.83;;;8.00;;
11663;SDS011;72375;59.302;18.204;2024-02-23T01:52:15;13.80;;;8.90;;
11663;SDS011;72375;59.302;18.204;2024-02-23T01:55:02;14.13;;;8.73;;
11663;SDS011;72375;59.302;18.204;2024-02-23T01:57:49;14.30;;;8.73;;
11663;SDS011;72375;59.302;18.204;2024-02-23T02:00:36;13.37;;;9.27;;
11663;SDS011;72375;59.302;18.204;2024-02-23T02:03:22;13.50;;;9.33;;
11663;SDS011;72375;59.302;18.204;2024-02-23T02:06:07;16.60;;;9.87;;
11663;SDS011;72375;59.302;18.204;2024-02-23T02:08:55;16.60;;;10.70;;
11663;SDS011;72375;59.302;18.204;2024-02-23T02:11:44;15.17;;;10.30;;
11663;SDS011;72375;59.302;18.204;2024-02-23T02:14:30;16.40;;;10.13;;
11663;SDS011;72375;59.302;18.204;2024-02-23T02:17:18;19.50;;;10.30;;
11663;SDS011;72375;59.302;18.204;2024-02-23T02:20:04;17.07;;;10.30;;
11663;SDS011;72375;59.302;18.204;2024-02-23T02:22:52;14.60;;;9.67;;
11663;SDS011;72375;59.302;18.204;2024-02-23T02:25:37;16.43;;;9.83;;
11663;SDS011;72375;59.302;18.204;2024-02-23T02:28:23;15.23;;;10.80;;
11663;SDS011;72375;59.302;18.204;2024-02-23T02:31:09;15.80;;;10.30;;
11663;SDS011;72375;59.302;18.204;2024-02-23T02:33:56;17.37;;;10.83;;
11663;SDS011;72375;59.302;18.204;2024-02-23T02:36:42;14.57;;;9.87;;
11663;SDS011;72375;59.302;18.204;2024-02-23T02:39:27;14.13;;;10.00;;
11663;SDS011;72375;59.302;18.204;2024-02-23T02:42:13;17.10;;;10.93;;
11663;SDS011;72375;59.302;18.204;2024-02-23T02:45:00;15.60;;;10.10;;
11663;SDS011;72375;59.302;18.204;2024-02-23T02:47:46;14.93;;;10.50;;
11663;SDS011;72375;59.302;18.204;2024-02-23T02:50:33;15.33;;;10.03;;
11663;SDS011;72375;59.302;18.204;2024-02-23T02:53:19;17.37;;;10.93;;
11663;SDS011;72375;59.302;18.204;2024-02-23T02:56:05;16.70;;;9.80;;
11663;SDS011;72375;59.302;18.204;2024-02-23T02:58:51;13.47;;;9.47;;
11663;SDS011;72375;59.302;18.204;2024-02-23T03:01:37;16.63;;;10.77;;
11663;SDS011;72375;59.302;18.204;2024-02-23T03:04:23;15.43;;;10.50;;
11663;SDS011;72375;59.302;18.204;2024-02-23T03:07:10;16.03;;;10.60;;
11663;SDS011;72375;59.302;18.204;2024-02-23T03:09:55;15.97;;;10.20;;
11663;SDS011;72375;59.302;18.204;2024-02-23T03:12:40;13.27;;;10.43;;
11663;SDS011;72375;59.302;18.204;2024-02-23T03:15:26;12.67;;;9.70;;
11663;SDS011;72375;59.302;18.204;2024-02-23T03:18:12;14.80;;;10.30;;
11663;SDS011;72375;59.302;18.204;2024-02-23T03:20:58;15.00;;;9.60;;
11663;SDS011;72375;59.302;18.204;2024-02-23T03:23:45;13.37;;;9.30;;
11663;SDS011;72375;59.302;18.204;2024-02-23T03:26:30;12.20;;;8.83;;
11663;SDS011;72375;59.302;18.204;2024-02-23T03:29:16;15.03;;;9.83;;
11663;SDS011;72375;59.302;18.204;2024-02-23T03:32:02;10.37;;;8.33;;
11663;SDS011;72375;59.302;18.204;2024-02-23T03:34:48;11.73;;;8.33;;
11663;SDS011;72375;59.302;18.204;2024-02-23T03:37:34;11.17;;;9.17;;
11663;SDS011;72375;59.302;18.204;2024-02-23T03:40:21;11.53;;;8.80;;
11663;SDS011;72375;59.302;18.204;2024-02-23T03:43:06;11.97;;;9.17;;
11663;SDS011;72375;59.302;18.204;2024-02-23T03:45:52;11.73;;;8.50;;
11663;SDS011;72375;59.302;18.204;2024-02-23T03:48:38;10.27;;;8.10;;
11663;SDS011;72375;59.302;18.204;2024-02-23T03:51:24;11.67;;;8.43;;
11663;SDS011;72375;59.302;18.204;2024-02-23T03:54:09;12.53;;;9.20;;
11663;SDS011;72375;59.302;18.204;2024-02-23T03:56:57;12.93;;;9.83;;
11663;SDS011;72375;59.302;18.204;2024-02-23T03:59:50;13.63;;;10.30;;
11663;SDS011;72375;59.302;18.204;2024-02-23T04:02:37;14.63;;;10.47;;
11663;SDS011;72375;59.302;18.204;2024-02-23T04:05:24;15.50;;;11.70;;
11663;SDS011;72375;59.302;18.204;2024-02-23T04:08:09;14.77;;;10.97;;
11663;SDS011;72375;59.302;18.204;2024-02-23T04:10:55;16.30;;;11.63;;
11663;SDS011;72375;59.302;18.204;2024-02-23T04:13:42;14.83;;;11.03;;
11663;SDS011;72375;59.302;18.204;2024-02-23T04:16:28;14.77;;;11.33;;
11663;SDS011;72375;59.302;18.204;2024-02-23T04:19:14;15.33;;;9.77;;
11663;SDS011;72375;59.302;18.204;2024-02-23T04:22:00;14.73;;;11.07;;
11663;SDS011;72375;59.302;18.204;2024-02-23T04:24:46;14.93;;;10.03;;
11663;SDS011;72375;59.302;18.204;2024-02-23T04:27:31;14.20;;;10.07;;
11663;SDS011;72375;59.302;18.204;2024-02-23T04:30:19;15.13;;;10.10;;
11663;SDS011;72375;59.302;18.204;2024-02-23T04:33:04;15.37;;;10.40;;
11663;SDS011;72375;59.302;18.204;2024-02-23T04:35:50;15.13;;;10.43;;
11663;SDS011;72375;59.302;18.204;2024-02-23T04:38:36;12.07;;;10.10;;
11663;SDS011;72375;59.302;18.204;2024-02-23T04:41:22;13.77;;;9.73;;
11663;SDS011;72375;59.302;18.204;2024-02-23T04:44:08;11.73;;;9.27;;
11663;SDS011;72375;59.302;18.204;2024-02-23T04:46:55;12.50;;;8.93;;
11663;SDS011;72375;59.302;18.204;2024-02-23T04:49:41;11.10;;;8.03;;
11663;SDS011;72375;59.302;18.204;2024-02-23T04:52:26;10.40;;;7.93;;
11663;SDS011;72375;59.302;18.204;2024-02-23T04:55:12;9.70;;;7.47;;
11663;SDS011;72375;59.302;18.204;2024-02-23T04:57:57;8.87;;;6.80;;
11663;SDS011;72375;59.302;18.204;2024-02-23T05:00:43;9.43;;;7.13;;
11663;SDS011;72375;59.302;18.204;2024-02-23T05:03:30;8.90;;;6.50;;
11663;SDS011;72375;59.302;18.204;2024-02-23T05:06:16;7.73;;;6.30;;
11663;SDS011;72375;59.302;18.204;2024-02-23T05:09:01;7.03;;;5.87;;
11663;SDS011;72375;59.302;18.204;2024-02-23T05:11:47;7.10;;;5.70;;
11663;SDS011;72375;59.302;18.204;2024-02-23T05:14:33;7.63;;;5.80;;
11663;SDS011;72375;59.302;18.204;2024-02-23T05:17:19;7.13;;;5.60;;
11663;SDS011;72375;59.302;18.204;2024-02-23T05:20:07;7.13;;;5.70;;
11663;SDS011;72375;59.302;18.204;2024-02-23T05:22:54;7.00;;;5.47;;
11663;SDS011;72375;59.302;18.204;2024-02-23T05:25:39;5.87;;;4.80;;
11663;SDS011;72375;59.302;18.204;2024-02-23T05:28:25;7.93;;;5.23;;
11663;SDS011;72375;59.302;18.204;2024-02-23T05:31:11;9.40;;;6.70;;
11663;SDS011;72375;59.302;18.204;2024-02-23T05:33:57;8.43;;;6.00;;
11663;SDS011;72375;59.302;18.204;2024-02-23T05:36:44;8.80;;;6.57;;
11663;SDS011;72375;59.302;18.204;2024-02-23T05:39:30;7.00;;;5.30;;
11663;SDS011;72375;59.302;18.204;2024-02-23T05:42:16;7.53;;;6.10;;
11663;SDS011;72375;59.302;18.204;2024-02-23T05:45:02;7.27;;;5.90;;
11663;SDS011;72375;59.302;18.204;2024-02-23T05:47:48;7.87;;;5.70;;
11663;SDS011;72375;59.302;18.204;2024-02-23T05:50:34;9.20;;;5.90;;
11663;SDS011;72375;59.302;18.204;2024-02-23T05:53:21;8.17;;;6.10;;
11663;SDS011;72375;59.302;18.204;2024-02-23T05:56:06;8.57;;;6.40;;
11663;SDS011;72375;59.302;18.204;2024-02-23T05:58:52;9.23;;;6.20;;
11663;SDS011;72375;59.302;18.204;2024-02-23T06:01:38;8.77;;;6.37;;
11663;SDS011;72375;59.302;18.204;2024-02-23T06:04:24;9.70;;;6.87;;
11663;SDS011;72375;59.302;18.204;2024-02-23T06:07:11;8.73;;;6.40;;
11663;SDS011;72375;59.302;18.204;2024-02-23T06:09:58;10.50;;;6.70;;
11663;SDS011;72375;59.302;18.204;2024-02-23T06:12:43;10.50;;;7.77;;
11663;SDS011;72375;59.302;18.204;2024-02-23T06:15:29;10.63;;;7.70;;
11663;SDS011;72375;59.302;18.204;2024-02-23T06:18:14;9.97;;;7.90;;
11663;SDS011;72375;59.302;18.204;2024-02-23T06:21:00;11.20;;;7.77;;
11663;SDS011;72375;59.302;18.204;2024-02-23T06:23:46;12.53;;;9.17;;
11663;SDS011;72375;59.302;18.204;2024-02-23T06:26:33;15.40;;;9.30;;
11663;SDS011;72375;59.302;18.204;2024-02-23T06:29:18;13.40;;;9.10;;
11663;SDS011;72375;59.302;18.204;2024-02-23T06:32:04;16.37;;;10.17;;
11663;SDS011;72375;59.302;18.204;2024-02-23T06:34:51;15.20;;;10.03;;
11663;SDS011;72375;59.302;18.204;2024-02-23T06:37:37;13.63;;;10.03;;
11663;SDS011;72375;59.302;18.204;2024-02-23T06:40:22;14.33;;;10.17;;
11663;SDS011;72375;59.302;18.204;2024-02-23T06:43:10;16.57;;;11.30;;
11663;SDS011;72375;59.302;18.204;2024-02-23T06:45:55;16.20;;;10.97;;
11663;SDS011;72375;59.302;18.204;2024-02-23T06:48:41;16.40;;;11.07;;
11663;SDS011;72375;59.302;18.204;2024-02-23T06:51:26;14.97;;;10.77;;
11663;SDS011;72375;59.302;18.204;2024-02-23T06:54:12;16.13;;;11.23;;
11663;SDS011;72375;59.302;18.204;2024-02-23T06:56:58;15.67;;;11.43;;
11663;SDS011;72375;59.302;18.204;2024-02-23T06:59:45;16.63;;;11.70;;
11663;SDS011;72375;59.302;18.204;2024-02-23T07:02:30;19.47;;;12.57;;
11663;SDS011;72375;59.302;18.204;2024-02-23T07:05:20;15.73;;;12.07;;
11663;SDS011;72375;59.302;18.204;2024-02-23T07:08:05;15.17;;;11.73;;
11663;SDS011;72375;59.302;18.204;2024-02-23T07:10:51;16.93;;;12.10;;
11663;SDS011;72375;59.302;18.204;2024-02-23T07:13:37;18.97;;;11.67;;
11663;SDS011;72375;59.302;18.204;2024-02-23T07:16:25;16.63;;;10.80;;
11663;SDS011;72375;59.302;18.204;2024-02-23T07:19:10;14.03;;;10.67;;
11663;SDS011;72375;59.302;18.204;2024-02-23T07:21:56;13.03;;;9.77;;
11663;SDS011;72375;59.302;18.204;2024-02-23T07:24:42;13.03;;;9.20;;
11663;SDS011;72375;59.302;18.204;2024-02-23T07:27:28;13.73;;;9.20;;
11663;SDS011;72375;59.302;18.204;2024-02-23T07:30:14;12.77;;;8.77;;
11663;SDS011;72375;59.302;18.204;2024-02-23T07:33:01;11.30;;;8.37;;
11663;SDS011;72375;59.302;18.204;2024-02-23T07:35:47;12.27;;;8.60;;
11663;SDS011;72375;59.302;18.204;2024-02-23T07:38:32;9.93;;;7.80;;
11663;SDS011;72375;59.302;18.204;2024-02-23T07:41:18;12.60;;;7.37;;
11663;SDS011;72375;59.302;18.204;2024-02-23T07:44:04;11.90;;;7.13;;
11663;SDS011;72375;59.302;18.204;2024-02-23T07:46:50;8.60;;;6.13;;
11663;SDS011;72375;59.302;18.204;2024-02-23T07:49:37;8.03;;;6.13;;
11663;SDS011;72375;59.302;18.204;2024-02-23T07:52:25;7.13;;;5.97;;
11663;SDS011;72375;59.302;18.204;2024-02-23T07:55:10;8.67;;;5.97;;
11663;SDS011;72375;59.302;18.204;2024-02-23T07:57:56;6.77;;;5.23;;
11663;SDS011;72375;59.302;18.204;2024-02-23T08:00:44;8.50;;;6.10;;
11663;SDS011;72375;59.302;18.204;2024-02-23T08:03:30;8.63;;;5.47;;
11663;SDS011;72375;59.302;18.204;2024-02-23T08:06:17;7.63;;;5.43;;
11663;SDS011;72375;59.302;18.204;2024-02-23T08:09:03;8.83;;;6.23;;
11663;SDS011;72375;59.302;18.204;2024-02-23T08:11:49;7.60;;;5.60;;
11663;SDS011;72375;59.302;18.204;2024-02-23T08:14:35;7.47;;;5.93;;
11663;SDS011;72375;59.302;18.204;2024-02-23T08:17:21;8.67;;;5.87;;
11663;SDS011;72375;59.302;18.204;2024-02-23T08:20:07;9.50;;;7.13;;
11663;SDS011;72375;59.302;18.204;2024-02-23T08:22:54;9.03;;;6.30;;
11663;SDS011;72375;59.302;18.204;2024-02-23T08:25:40;12.23;;;7.53;;
11663;SDS011;72375;59.302;18.204;2024-02-23T08:28:26;9.77;;;7.07;;
11663;SDS011;72375;59.302;18.204;2024-02-23T08:31:11;9.17;;;7.00;;
11663;SDS011;72375;59.302;18.204;2024-02-23T08:33:57;10.07;;;6.53;;
11663;SDS011;72375;59.302;18.204;2024-02-23T08:36:43;9.07;;;6.33;;
11663;SDS011;72375;59.302;18.204;2024-02-23T08:39:30;9.00;;;6.80;;
11663;SDS011;72375;59.302;18.204;2024-02-23T08:42:15;10.03;;;6.83;;
11663;SDS011;72375;59.302;18.204;2024-02-23T08:45:01;8.53;;;6.30;;
11663;SDS011;72375;59.302;18.204;2024-02-23T08:47:46;8.53;;;6.30;;
11663;SDS011;72375;59.302;18.204;2024-02-23T08:50:32;9.73;;;5.70;;
11663;SDS011;72375;59.302;18.204;2024-02-23T08:53:17;7.63;;;5.50;;
11663;SDS011;72375;59.302;18.204;2024-02-23T08:56:05;8.47;;;5.67;;
11663;SDS011;72375;59.302;18.204;2024-02-23T08:58:51;6.90;;;4.87;;
11663;SDS011;72375;59.302;18.204;2024-02-23T09:01:37;7.60;;;5.13;;
11663;SDS011;72375;59.302;18.204;2024-02-23T09:04:23;8.47;;;4.90;;
11663;SDS011;72375;59.302;18.204;2024-02-23T09:07:08;6.93;;;4.97;;
11663;SDS011;72375;59.302;18.204;2024-02-23T09:09:54;8.00;;;4.70;;
11663;SDS011;72375;59.302;18.204;2024-02-23T09:12:42;5.90;;;4.60;;
11663;SDS011;72375;59.302;18.204;2024-02-23T09:15:28;8.13;;;4.93;;
11663;SDS011;72375;59.302;18.204;2024-02-23T09:18:13;6.67;;;4.90;;
11663;SDS011;72375;59.302;18.204;2024-02-23T09:20:59;8.43;;;5.20;;
11663;SDS011;72375;59.302;18.204;2024-02-23T09:23:45;7.63;;;5.00;;
11663;SDS011;72375;59.302;18.204;2024-02-23T09:26:31;7.43;;;5.20;;
11663;SDS011;72375;59.302;18.204;2024-02-23T09:29:18;6.97;;;4.57;;
11663;SDS011;72375;59.302;18.204;2024-02-23T09:32:03;7.80;;;5.63;;
11663;SDS011;72375;59.302;18.204;2024-02-23T09:34:50;6.10;;;5.07;;
11663;SDS011;72375;59.302;18.204;2024-02-23T09:37:35;7.47;;;5.67;;
11663;SDS011;72375;59.302;18.204;2024-02-23T09:40:21;7.70;;;5.43;;
11663;SDS011;72375;59.302;18.204;2024-02-23T09:43:07;7.57;;;4.90;;
11663;SDS011;72375;59.302;18.204;2024-02-23T09:45:56;7.47;;;5.27;;
11663;SDS011;72375;59.302;18.204;2024-02-23T09:48:42;5.87;;;4.57;;
11663;SDS011;72375;59.302;18.204;2024-02-23T09:51:29;6.57;;;5.10;;
11663;SDS011;72375;59.302;18.204;2024-02-23T09:54:16;6.80;;;4.73;;
11663;SDS011;72375;59.302;18.204;2024-02-23T09:57:02;7.90;;;5.53;;
11663;SDS011;72375;59.302;18.204;2024-02-23T09:59:52;6.70;;;4.60;;
11663;SDS011;72375;59.302;18.204;2024-02-23T10:02:40;7.20;;;4.63;;
11663;SDS011;72375;59.302;18.204;2024-02-23T10:05:29;8.77;;;4.30;;
11663;SDS011;72375;59.302;18.204;2024-02-23T10:08:15;5.67;;;4.10;;
11663;SDS011;72375;59.302;18.204;2024-02-23T10:11:01;7.33;;;3.87;;
11663;SDS011;72375;59.302;18.204;2024-02-23T10:13:47;6.97;;;4.57;;
11663;SDS011;72375;59.302;18.204;2024-02-23T10:16:34;9.97;;;4.00;;
11663;SDS011;72375;59.302;18.204;2024-02-23T10:19:21;10.23;;;4.57;;
11663;SDS011;72375;59.302;18.204;2024-02-23T10:22:12;9.77;;;5.00;;
11663;SDS011;72375;59.302;18.204;2024-02-23T10:24:58;7.53;;;4.63;;
11663;SDS011;72375;59.302;18.204;2024-02-23T10:27:44;7.60;;;4.03;;
11663;SDS011;72375;59.302;18.204;2024-02-23T10:30:30;6.63;;;4.10;;
11663;SDS011;72375;59.302;18.204;2024-02-23T10:33:15;6.53;;;4.07;;
11663;SDS011;72375;59.302;18.204;2024-02-23T10:36:06;6.27;;;3.83;;
11663;SDS011;72375;59.302;18.204;2024-02-23T10:38:53;6.57;;;3.97;;
11663;SDS011;72375;59.302;18.204;2024-02-23T10:41:43;5.10;;;3.80;;
11663;SDS011;72375;59.302;18.204;2024-02-23T10:44:32;4.97;;;3.23;;
11663;SDS011;72375;59.302;18.204;2024-02-23T10:47:18;5.90;;;3.27;;
11663;SDS011;72375;59.302;18.204;2024-02-23T10:50:05;5.27;;;3.37;;
11663;SDS011;72375;59.302;18.204;2024-02-23T10:52:53;5.97;;;3.08;;
11663;SDS011;72375;59.302;18.204;2024-02-23T10:55:40;6.10;;;2.67;;
11663;SDS011;72375;59.302;18.204;2024-02-23T10:58:28;3.58;;;2.55;;
11663;SDS011;72375;59.302;18.204;2024-02-23T11:01:14;5.38;;;2.72;;
11663;SDS011;72375;59.302;18.204;2024-02-23T11:04:01;4.18;;;2.53;;
11663;SDS011;72375;59.302;18.204;2024-02-23T11:06:50;5.00;;;2.47;;
11663;SDS011;72375;59.302;18.204;2024-02-23T11:09:37;5.45;;;2.60;;
11663;SDS011;72375;59.302;18.204;2024-02-23T11:12:23;4.43;;;2.20;;
11663;SDS011;72375;59.302;18.204;2024-02-23T11:15:09;3.75;;;2.33;;
11663;SDS011;72375;59.302;18.204;2024-02-23T11:18:22;2.20;;;1.50;;
11663;SDS011;72375;59.302;18.204;2024-02-23T11:21:11;2.78;;;1.83;;
11663;SDS011;72375;59.302;18.204;2024-02-23T11:23:57;3.92;;;1.75;;
11663;SDS011;72375;59.302;18.204;2024-02-23T11:26:49;3.80;;;1.60;;
11663;SDS011;72375;59.302;18.204;2024-02-23T11:29:35;3.03;;;1.63;;
11663;SDS011;72375;59.302;18.204;2024-02-23T11:32:23;3.90;;;1.85;;
11663;SDS011;72375;59.302;18.204;2024-02-23T11:35:22;2.65;;;1.50;;
11663;SDS011;72375;59.302;18.204;2024-02-23T11:38:12;1.88;;;1.27;;
11663;SDS011;72375;59.302;18.204;2024-02-23T11:40:58;4.25;;;1.58;;
11663;SDS011;72375;59.302;18.204;2024-02-23T11:43:46;2.63;;;1.17;;
11663;SDS011;72375;59.302;18.204;2024-02-23T11:46:33;2.97;;;1.25;;
11663;SDS011;72375;59.302;18.204;2024-02-23T11:49:18;2.83;;;1.55;;
11663;SDS011;72375;59.302;18.204;2024-02-23T11:52:04;2.33;;;1.20;;
11663;SDS011;72375;59.302;18.204;2024-02-23T11:54:51;1.33;;;0.90;;
11663;SDS011;72375;59.302;18.204;2024-02-23T11:57:36;2.95;;;1.30;;
11663;SDS011;72375;59.302;18.204;2024-02-23T12:00:25;3.30;;;1.10;;
11663;SDS011;72375;59.302;18.204;2024-02-23T12:03:11;1.92;;;1.10;;
11663;SDS011;72375;59.302;18.204;2024-02-23T12:05:56;2.20;;;1.20;;
11663;SDS011;72375;59.302;18.204;2024-02-23T12:08:42;4.60;;;1.45;;
11663;SDS011;72375;59.302;18.204;2024-02-23T12:11:30;3.45;;;1.17;;
11663;SDS011;72375;59.302;18.204;2024-02-23T12:14:16;2.58;;;1.17;;
11663;SDS011;72375;59.302;18.204;2024-02-23T12:17:03;2.15;;;1.10;;
11663;SDS011;72375;59.302;18.204;2024-02-23T12:19:50;2.20;;;1.25;;
11663;SDS011;72375;59.302;18.204;2024-02-23T12:22:43;3.83;;;1.20;;
11663;SDS011;72375;59.302;18.204;2024-02-23T12:25:29;1.02;;;0.80;;
11663;SDS011;72375;59.302;18.204;2024-02-23T12:28:17;1.88;;;0.98;;
11663;SDS011;72375;59.302;18.204;2024-02-23T12:31:03;2.83;;;0.90;;
11663;SDS011;72375;59.302;18.204;2024-02-23T12:33:51;2.78;;;1.20;;
11663;SDS011;72375;59.302;18.204;2024-02-23T12:36:36;2.45;;;1.20;;
11663;SDS011;72375;59.302;18.204;2024-02-23T12:39:22;2.42;;;0.98;;
11663;SDS011;72375;59.302;18.204;2024-02-23T12:42:08;4.60;;;1.17;;
11663;SDS011;72375;59.302;18.204;2024-02-23T12:44:53;2.17;;;1.00;;
11663;SDS011;72375;59.302;18.204;2024-02-23T12:47:39;2.95;;;0.98;;
11663;SDS011;72375;59.302;18.204;2024-02-23T12:50:26;4.15;;;1.00;;
11663;SDS011;72375;59.302;18.204;2024-02-23T12:53:30;2.00;;;0.93;;
11663;SDS011;72375;59.302;18.204;2024-02-23T12:56:17;1.95;;;0.73;;
11663;SDS011;72375;59.302;18.204;2024-02-23T12:59:04;4.28;;;1.10;;
11663;SDS011;72375;59.302;18.204;2024-02-23T13:01:50;1.83;;;0.80;;
11663;SDS011;72375;59.302;18.204;2024-02-23T13:04:35;3.75;;;0.95;;
11663;SDS011;72375;59.302;18.204;2024-02-23T13:07:22;3.33;;;0.90;;
11663;SDS011;72375;59.302;18.204;2024-02-23T13:10:08;4.25;;;1.15;;
11663;SDS011;72375;59.302;18.204;2024-02-23T13:12:53;4.78;;;1.10;;
11663;SDS011;72375;59.302;18.204;2024-02-23T13:15:39;2.35;;;1.10;;
11663;SDS011;72375;59.302;18.204;2024-02-23T13:18:25;2.85;;;0.82;;
11663;SDS011;72375;59.302;18.204;2024-02-23T13:21:11;3.38;;;1.15;;
11663;SDS011;72375;59.302;18.204;2024-02-23T13:23:58;2.58;;;1.00;;
11663;SDS011;72375;59.302;18.204;2024-02-23T13:26:43;3.25;;;1.08;;
11663;SDS011;72375;59.302;18.204;2024-02-23T13:29:29;1.52;;;0.95;;
11663;SDS011;72375;59.302;18.204;2024-02-23T13:32:14;2.65;;;1.17;;
11663;SDS011;72375;59.302;18.204;2024-02-23T13:35:00;3.50;;;1.15;;
11663;SDS011;72375;59.302;18.204;2024-02-23T13:37:48;5.28;;;1.20;;
11663;SDS011;72375;59.302;18.204;2024-02-23T13:40:35;3.58;;;0.90;;
11663;SDS011;72375;59.302;18.204;2024-02-23T13:43:20;3.10;;;1.15;;
11663;SDS011;72375;59.302;18.204;2024-02-23T13:46:06;2.47;;;0.93;;
11663;SDS011;72375;59.302;18.204;2024-02-23T13:49:01;3.85;;;1.17;;
11663;SDS011;72375;59.302;18.204;2024-02-23T13:51:49;2.45;;;0.93;;
11663;SDS011;72375;59.302;18.204;2024-02-23T13:54:34;1.88;;;0.85;;
11663;SDS011;72375;59.302;18.204;2024-02-23T13:57:21;3.72;;;1.20;;
11663;SDS011;72375;59.302;18.204;2024-02-23T14:00:07;5.50;;;1.50;;
11663;SDS011;72375;59.302;18.204;2024-02-23T14:02:56;2.97;;;1.05;;
11663;SDS011;72375;59.302;18.204;2024-02-23T14:05:42;3.95;;;1.10;;
11663;SDS011;72375;59.302;18.204;2024-02-23T14:08:28;1.83;;;0.93;;
11663;SDS011;72375;59.302;18.204;2024-02-23T14:11:15;2.43;;;1.20;;
11663;SDS011;72375;59.302;18.204;2024-02-23T14:14:03;2.60;;;0.83;;
11663;SDS011;72375;59.302;18.204;2024-02-23T14:16:49;2.75;;;1.20;;
11663;SDS011;72375;59.302;18.204;2024-02-23T14:19:35;3.60;;;1.23;;
11663;SDS011;72375;59.302;18.204;2024-02-23T14:22:20;3.70;;;1.05;;
11663;SDS011;72375;59.302;18.204;2024-02-23T14:25:07;3.43;;;1.33;;
11663;SDS011;72375;59.302;18.204;2024-02-23T14:27:53;4.63;;;1.30;;
11663;SDS011;72375;59.302;18.204;2024-02-23T14:30:41;3.28;;;1.20;;
11663;SDS011;72375;59.302;18.204;2024-02-23T14:33:27;4.45;;;1.27;;
11663;SDS011;72375;59.302;18.204;2024-02-23T14:36:12;3.70;;;1.20;;
11663;SDS011;72375;59.302;18.204;2024-02-23T14:38:58;5.32;;;1.30;;
11663;SDS011;72375;59.302;18.204;2024-02-23T14:41:44;5.13;;;1.30;;
11663;SDS011;72375;59.302;18.204;2024-02-23T14:44:29;4.78;;;1.00;;
11663;SDS011;72375;59.302;18.204;2024-02-23T14:47:16;4.60;;;1.60;;
11663;SDS011;72375;59.302;18.204;2024-02-23T14:50:02;6.37;;;1.27;;
11663;SDS011;72375;59.302;18.204;2024-02-23T14:52:48;4.20;;;1.30;;
11663;SDS011;72375;59.302;18.204;2024-02-23T14:55:34;3.83;;;1.13;;
11663;SDS011;72375;59.302;18.204;2024-02-23T14:58:20;3.30;;;1.03;;
11663;SDS011;72375;59.302;18.204;2024-02-23T15:01:06;6.00;;;1.30;;
11663;SDS011;72375;59.302;18.204;2024-02-23T15:03:53;7.93;;;1.07;;
11663;SDS011;72375;59.302;18.204;2024-02-23T15:06:39;5.40;;;1.00;;
11663;SDS011;72375;59.302;18.204;2024-02-23T15:09:24;4.67;;;1.20;;
11663;SDS011;72375;59.302;18.204;2024-02-23T15:12:10;3.70;;;1.17;;
11663;SDS011;72375;59.302;18.204;2024-02-23T15:14:57;4.60;;;1.60;;
11663;SDS011;72375;59.302;18.204;2024-02-23T15:17:43;3.97;;;1.10;;
11663;SDS011;72375;59.302;18.204;2024-02-23T15:20:31;7.10;;;1.70;;
11663;SDS011;72375;59.302;18.204;2024-02-23T15:23:17;5.60;;;1.43;;
11663;SDS011;72375;59.302;18.204;2024-02-23T15:26:03;3.43;;;1.20;;
11663;SDS011;72375;59.302;18.204;2024-02-23T15:28:48;5.00;;;1.40;;
11663;SDS011;72375;59.302;18.204;2024-02-23T15:31:34;4.10;;;1.17;;
11663;SDS011;72375;59.302;18.204;2024-02-23T15:34:20;5.33;;;1.40;;
11663;SDS011;72375;59.302;18.204;2024-02-23T15:37:07;4.13;;;1.13;;
11663;SDS011;72375;59.302;18.204;2024-02-23T15:39:52;4.40;;;1.50;;
11663;SDS011;72375;59.302;18.204;2024-02-23T15:42:38;3.77;;;0.97;;
11663;SDS011;72375;59.302;18.204;2024-02-23T15:45:24;4.17;;;1.10;;
11663;SDS011;72375;59.302;18.204;2024-02-23T15:48:10;4.57;;;1.70;;
11663;SDS011;72375;59.302;18.204;2024-02-23T15:50:57;3.47;;;1.00;;
11663;SDS011;72375;59.302;18.204;2024-02-23T15:53:44;5.53;;;1.43;;
11663;SDS011;72375;59.302;18.204;2024-02-23T15:56:30;5.53;;;1.17;;
11663;SDS011;72375;59.302;18.204;2024-02-23T15:59:17;3.67;;;1.10;;
11663;SDS011;72375;59.302;18.204;2024-02-23T16:02:03;4.00;;;1.23;;
11663;SDS011;72375;59.302;18.204;2024-02-23T16:04:50;5.33;;;1.40;;
11663;SDS011;72375;59.302;18.204;2024-02-23T16:07:36;6.10;;;1.53;;
11663;SDS011;72375;59.302;18.204;2024-02-23T16:10:23;5.73;;;1.50;;
11663;SDS011;72375;59.302;18.204;2024-02-23T16:13:09;4.83;;;1.07;;
11663;SDS011;72375;59.302;18.204;2024-02-23T16:15:55;5.07;;;1.30;;
11663;SDS011;72375;59.302;18.204;2024-02-23T16:18:41;4.87;;;1.00;;
11663;SDS011;72375;59.302;18.204;2024-02-23T16:21:26;4.90;;;1.17;;